createdAt,value
2017-12-10T00:00:58.300Z,4.30
2017-12-10T00:03:25.806Z,5.10
2017-12-10T00:05:53.306Z,3.78
2017-12-10T00:08:20.838Z,3.10
2017-12-10T00:10:49.114Z,3.00
2017-12-10T00:13:17.425Z,3.93
2017-12-10T00:15:44.945Z,3.33
2017-12-10T00:18:13.213Z,3.40
2017-12-10T00:20:40.760Z,3.05
2017-12-10T00:23:08.272Z,3.90
2017-12-10T00:25:35.801Z,4.77
2017-12-10T00:28:04.073Z,3.80
2017-12-10T00:30:32.381Z,3.63
2017-12-10T00:32:59.875Z,4.10
2017-12-10T00:35:27.411Z,6.43
2017-12-10T00:37:54.903Z,3.93
2017-12-10T00:40:23.201Z,3.67
2017-12-10T00:42:50.707Z,5.00
2017-12-10T00:45:18.213Z,4.62
2017-12-10T00:47:46.521Z,5.65
2017-12-10T00:50:14.024Z,4.17
2017-12-10T00:52:43.037Z,3.37
2017-12-10T00:55:11.320Z,2.63
2017-12-10T00:57:38.814Z,6.03
2017-12-10T01:00:06.357Z,3.63
2017-12-10T01:02:33.852Z,4.43
2017-12-10T01:05:01.353Z,5.13
2017-12-10T01:07:28.871Z,3.77
2017-12-10T01:09:56.377Z,4.20
2017-12-10T01:12:23.905Z,4.20
2017-12-10T01:14:52.225Z,6.33
2017-12-10T01:17:19.745Z,2.97
2017-12-10T01:19:48.014Z,5.73
2017-12-10T01:22:16.301Z,3.67
2017-12-10T01:24:44.574Z,3.37
2017-12-10T01:27:12.840Z,3.40
2017-12-10T01:29:41.141Z,3.00
2017-12-10T01:32:08.633Z,6.50
2017-12-10T01:34:36.171Z,2.47
2017-12-10T01:37:03.709Z,4.53
2017-12-10T01:39:31.232Z,3.50
2017-12-10T01:41:58.778Z,4.40
2017-12-10T01:44:26.286Z,4.70
2017-12-10T01:46:53.790Z,4.90
2017-12-10T01:49:21.326Z,3.55
2017-12-10T01:51:48.847Z,5.20
2017-12-10T01:54:17.133Z,2.90
2017-12-10T01:56:44.633Z,4.37
2017-12-10T01:59:12.136Z,2.97
2017-12-10T02:01:40.439Z,5.93
2017-12-10T02:04:07.929Z,2.57
2017-12-10T02:06:35.444Z,2.93
2017-12-10T02:09:02.947Z,4.10
2017-12-10T02:11:30.449Z,3.70
2017-12-10T02:13:58.742Z,3.17
2017-12-10T02:16:26.248Z,4.30
2017-12-10T02:18:53.760Z,2.73
2017-12-10T02:21:21.249Z,3.80
2017-12-10T02:23:48.776Z,3.80
2017-12-10T02:26:16.317Z,2.37
2017-12-10T02:28:43.825Z,3.80
2017-12-10T02:31:11.320Z,2.83
2017-12-10T02:33:39.609Z,3.80
2017-12-10T02:36:07.100Z,2.50
2017-12-10T02:38:34.589Z,4.55
2017-12-10T02:41:02.105Z,3.40
2017-12-10T02:43:29.636Z,7.50
2017-12-10T02:45:57.132Z,2.62
2017-12-10T02:48:24.697Z,3.28
2017-12-10T02:50:52.202Z,3.20
2017-12-10T02:53:19.692Z,3.07
2017-12-10T02:55:47.205Z,3.07
2017-12-10T02:58:15.465Z,2.67
2017-12-10T03:00:43.794Z,2.92
2017-12-10T03:03:11.288Z,3.40
2017-12-10T03:05:38.778Z,3.83
2017-12-10T03:08:06.308Z,4.15
2017-12-10T03:10:33.795Z,3.08
2017-12-10T03:13:01.339Z,3.28
2017-12-10T03:15:29.614Z,4.83
2017-12-10T03:17:57.875Z,2.90
2017-12-10T03:20:25.400Z,2.90
2017-12-10T03:22:52.900Z,5.35
2017-12-10T03:25:21.182Z,5.47
2017-12-10T03:27:49.451Z,2.90
2017-12-10T03:30:17.749Z,3.58
2017-12-10T03:32:45.258Z,2.05
2017-12-10T03:35:12.774Z,3.87
2017-12-10T03:37:40.277Z,3.90
2017-12-10T03:40:07.801Z,5.12
2017-12-10T03:42:35.340Z,3.62
2017-12-10T03:45:02.850Z,5.37
2017-12-10T03:47:30.340Z,2.67
2017-12-10T03:49:58.644Z,2.70
2017-12-10T03:52:26.141Z,3.85
2017-12-10T03:54:53.668Z,4.27
2017-12-10T03:57:21.162Z,2.90
2017-12-10T03:59:48.693Z,3.80
2017-12-10T04:02:16.188Z,6.35
2017-12-10T04:04:43.675Z,5.87
2017-12-10T04:07:11.205Z,2.70
2017-12-10T04:09:39.465Z,2.77
2017-12-10T04:12:06.977Z,2.93
2017-12-10T04:14:34.486Z,2.80
2017-12-10T04:17:02.747Z,2.60
2017-12-10T04:19:30.267Z,5.20
2017-12-10T04:21:57.757Z,5.40
2017-12-10T04:24:25.278Z,4.03
2017-12-10T04:26:52.815Z,3.20
2017-12-10T04:29:20.316Z,2.40
2017-12-10T04:31:47.841Z,2.57
2017-12-10T04:34:15.351Z,5.43
2017-12-10T04:36:42.865Z,5.70
2017-12-10T04:39:10.352Z,3.40
2017-12-10T04:41:37.891Z,4.70
2017-12-10T04:44:05.414Z,2.93
2017-12-10T04:46:33.665Z,2.93
2017-12-10T04:49:01.252Z,2.37
2017-12-10T04:51:28.780Z,6.67
2017-12-10T04:53:57.045Z,5.72
2017-12-10T04:56:24.569Z,3.00
2017-12-10T04:58:52.063Z,2.40
2017-12-10T05:01:19.585Z,2.90
2017-12-10T05:03:47.075Z,2.40
2017-12-10T05:06:14.600Z,4.12
2017-12-10T05:08:42.135Z,2.67
2017-12-10T05:11:09.625Z,3.55
2017-12-10T05:13:37.135Z,6.03
2017-12-10T05:16:05.405Z,3.65
2017-12-10T05:18:33.688Z,3.00
2017-12-10T05:21:01.190Z,4.65
2017-12-10T05:23:28.686Z,2.65
2017-12-10T05:25:56.967Z,3.50
2017-12-10T05:28:25.228Z,4.45
2017-12-10T05:30:52.748Z,3.12
2017-12-10T05:33:20.232Z,2.80
2017-12-10T05:35:47.761Z,4.75
2017-12-10T05:38:15.274Z,3.77
2017-12-10T05:40:43.524Z,2.70
2017-12-10T05:43:11.052Z,2.97
2017-12-10T05:45:38.551Z,4.20
2017-12-10T05:48:06.857Z,8.00
2017-12-10T05:50:34.347Z,3.60
2017-12-10T05:53:01.892Z,8.43
2017-12-10T05:55:29.419Z,4.05
2017-12-10T05:57:56.925Z,2.72
2017-12-10T06:00:24.429Z,3.85
2017-12-10T06:02:52.812Z,2.60
2017-12-10T06:05:21.073Z,2.90
2017-12-10T06:07:49.352Z,5.70
2017-12-10T06:10:17.603Z,6.40
2017-12-10T06:12:45.120Z,2.80
2017-12-10T06:15:12.616Z,3.22
2017-12-10T06:17:40.190Z,4.18
2017-12-10T06:20:07.681Z,2.73
2017-12-10T06:22:35.187Z,4.18
2017-12-10T06:25:02.705Z,3.80
2017-12-10T06:27:30.193Z,4.27
2017-12-10T06:29:57.709Z,4.00
2017-12-10T06:32:25.204Z,3.27
2017-12-10T06:34:52.688Z,6.30
2017-12-10T06:37:20.213Z,6.40
2017-12-10T06:39:47.697Z,4.30
2017-12-10T06:42:15.210Z,3.77
2017-12-10T06:44:42.701Z,3.37
2017-12-10T06:47:10.229Z,4.57
2017-12-10T06:49:37.724Z,4.75
2017-12-10T06:52:05.318Z,3.67
2017-12-10T06:54:33.593Z,3.37
2017-12-10T06:57:01.088Z,3.20
2017-12-10T06:59:28.620Z,3.42
2017-12-10T07:01:56.120Z,7.07
2017-12-10T07:04:23.619Z,7.00
2017-12-10T07:06:51.139Z,4.35
2017-12-10T07:09:18.660Z,4.75
2017-12-10T07:11:46.200Z,7.95
2017-12-10T07:14:13.692Z,4.00
2017-12-10T07:16:41.176Z,4.73
2017-12-10T07:19:08.702Z,5.13
2017-12-10T07:21:36.211Z,4.57
2017-12-10T07:24:04.503Z,4.50
2017-12-10T07:26:32.017Z,5.20
2017-12-10T07:28:59.499Z,8.60
2017-12-10T07:31:27.799Z,7.60
2017-12-10T07:33:55.300Z,5.93
2017-12-10T07:36:22.836Z,8.27
2017-12-10T07:38:50.361Z,6.33
2017-12-10T07:41:17.886Z,5.83
2017-12-10T07:43:45.381Z,5.50
2017-12-10T07:46:12.867Z,5.90
2017-12-10T07:48:40.384Z,6.77
2017-12-10T07:51:08.653Z,5.40
2017-12-10T07:53:36.218Z,5.75
2017-12-10T07:56:03.740Z,6.12
2017-12-10T07:58:31.244Z,6.47
2017-12-10T08:00:58.765Z,6.55
2017-12-10T08:03:26.736Z,5.03
2017-12-10T08:05:54.261Z,5.37
2017-12-10T08:08:21.747Z,6.10
2017-12-10T08:10:49.281Z,6.93
2017-12-10T08:13:16.767Z,7.07
2017-12-10T08:15:44.270Z,4.80
2017-12-10T08:18:11.792Z,4.78
2017-12-10T08:20:40.060Z,5.55
2017-12-10T08:23:08.352Z,6.57
2017-12-10T08:25:35.855Z,7.10
2017-12-10T08:28:03.396Z,4.85
2017-12-10T08:30:30.896Z,5.57
2017-12-10T08:32:58.412Z,6.05
2017-12-10T08:35:25.950Z,4.65
2017-12-10T08:37:53.441Z,5.97
2017-12-10T08:40:20.957Z,6.32
2017-12-10T08:42:48.504Z,6.93
2017-12-10T08:45:16.774Z,6.10
2017-12-10T08:47:45.066Z,5.37
2017-12-10T08:50:12.572Z,5.82
2017-12-10T08:52:40.102Z,7.05
2017-12-10T08:55:07.619Z,8.20
2017-12-10T08:57:35.124Z,6.50
2017-12-10T09:00:02.680Z,7.40
2017-12-10T09:02:30.171Z,8.53
2017-12-10T09:04:57.705Z,6.43
2017-12-10T09:07:25.201Z,5.20
2017-12-10T09:09:52.709Z,7.33
2017-12-10T09:12:20.225Z,5.83
2017-12-10T09:14:48.483Z,5.47
2017-12-10T09:17:16.085Z,8.00
2017-12-10T09:19:44.321Z,5.13
2017-12-10T09:22:12.585Z,4.93
2017-12-10T09:24:40.120Z,5.27
2017-12-10T09:27:07.624Z,4.55
2017-12-10T09:29:35.149Z,5.80
2017-12-10T09:32:02.640Z,5.73
2017-12-10T09:34:30.141Z,4.50
2017-12-10T09:36:57.657Z,5.00
2017-12-10T09:39:25.916Z,4.67
2017-12-10T09:41:53.410Z,5.00
2017-12-10T09:44:20.987Z,4.53
2017-12-10T09:46:48.492Z,5.27
2017-12-10T09:49:16.046Z,4.17
2017-12-10T09:51:43.543Z,4.90
2017-12-10T09:54:11.048Z,5.32
2017-12-10T09:56:38.573Z,8.70
2017-12-10T09:59:06.094Z,4.17
2017-12-10T10:01:34.406Z,5.77
2017-12-10T10:04:01.904Z,4.23
2017-12-10T10:06:29.442Z,3.20
2017-12-10T10:08:56.949Z,4.00
2017-12-10T10:11:25.213Z,3.53
2017-12-10T10:13:52.739Z,4.13
2017-12-10T10:16:20.232Z,4.80
2017-12-10T10:18:48.538Z,3.30
2017-12-10T10:21:16.032Z,3.93
2017-12-10T10:23:43.572Z,3.67
2017-12-10T10:26:11.140Z,4.30
2017-12-10T10:28:38.648Z,6.03
2017-12-10T10:31:06.165Z,3.85
2017-12-10T10:33:33.690Z,3.78
2017-12-10T10:36:01.203Z,3.70
2017-12-10T10:38:28.738Z,3.33
2017-12-10T10:40:56.259Z,3.92
2017-12-10T10:43:23.801Z,3.53
2017-12-10T10:45:51.295Z,3.55
2017-12-10T10:48:18.826Z,3.40
2017-12-10T10:50:46.323Z,2.70
2017-12-10T10:53:13.825Z,3.40
2017-12-10T10:55:41.369Z,3.33
2017-12-10T10:58:09.668Z,3.00
2017-12-10T11:00:37.238Z,2.87
2017-12-10T11:03:04.794Z,5.45
2017-12-10T11:05:32.302Z,3.20
2017-12-10T11:07:59.822Z,3.25
2017-12-10T11:10:27.452Z,3.12
2017-12-10T11:12:55.742Z,3.10
2017-12-10T11:15:23.277Z,3.42
2017-12-10T11:17:51.586Z,3.08
2017-12-10T11:20:19.111Z,3.67
2017-12-10T11:22:47.426Z,3.15
2017-12-10T11:25:15.070Z,6.95
2017-12-10T11:27:42.617Z,3.05
2017-12-10T11:30:10.151Z,2.70
2017-12-10T11:32:38.433Z,3.20
2017-12-10T11:35:06.767Z,3.05
2017-12-10T11:37:34.326Z,3.80
2017-12-10T11:40:01.867Z,2.35
2017-12-10T11:42:29.393Z,3.00
2017-12-10T11:44:57.664Z,3.12
2017-12-10T11:47:25.956Z,2.65
2017-12-10T11:49:53.494Z,2.97
2017-12-10T11:52:21.845Z,2.58
2017-12-10T11:54:49.342Z,3.60
2017-12-10T11:57:16.852Z,3.70
2017-12-10T11:59:44.384Z,2.87
2017-12-10T12:02:11.940Z,2.80
2017-12-10T12:04:39.469Z,4.37
2017-12-10T12:07:07.752Z,2.55
2017-12-10T12:09:35.319Z,2.78
2017-12-10T12:12:02.946Z,3.30
2017-12-10T12:14:31.248Z,3.40
2017-12-10T12:16:58.774Z,2.95
2017-12-10T12:19:26.434Z,2.50
2017-12-10T12:21:53.976Z,2.40
2017-12-10T12:24:21.611Z,3.08
2017-12-10T12:26:49.162Z,3.85
2017-12-10T12:29:16.726Z,2.75
2017-12-10T12:31:44.222Z,3.45
2017-12-10T12:34:11.756Z,3.30
2017-12-10T12:36:39.263Z,3.60
2017-12-10T12:39:07.547Z,3.30
2017-12-10T12:41:35.840Z,3.07
2017-12-10T12:44:03.353Z,3.20
2017-12-10T12:46:30.900Z,5.10
2017-12-10T12:48:58.413Z,2.90
2017-12-10T12:51:25.912Z,3.05
2017-12-10T12:53:53.441Z,2.47
2017-12-10T12:56:20.945Z,2.93
2017-12-10T12:58:49.251Z,2.58
2017-12-10T13:01:16.777Z,2.62
2017-12-10T13:03:45.054Z,3.17
2017-12-10T13:06:13.358Z,3.62
2017-12-10T13:08:40.881Z,3.08
2017-12-10T13:11:08.400Z,3.50
2017-12-10T13:13:35.886Z,5.50
2017-12-10T13:16:03.428Z,3.70
2017-12-10T13:18:30.933Z,5.87
2017-12-10T13:20:58.452Z,4.95
2017-12-10T13:23:25.979Z,5.53
2017-12-10T13:25:53.514Z,6.07
2017-12-10T13:28:21.047Z,5.53
2017-12-10T13:30:48.556Z,4.90
2017-12-10T13:33:16.139Z,5.62
2017-12-10T13:35:43.640Z,4.70
2017-12-10T13:38:11.906Z,4.50
2017-12-10T13:40:40.218Z,4.37
2017-12-10T13:43:07.724Z,7.20
2017-12-10T13:45:35.246Z,3.80
2017-12-10T13:48:02.765Z,3.80
2017-12-10T13:50:30.308Z,3.60
2017-12-10T13:52:58.570Z,4.17
2017-12-10T13:55:26.088Z,4.60
2017-12-10T13:57:53.604Z,4.20
2017-12-10T14:00:21.876Z,6.37
2017-12-10T14:02:50.152Z,3.37
2017-12-10T14:05:18.468Z,6.70
2017-12-10T14:07:45.982Z,5.03
2017-12-10T14:10:13.544Z,3.90
2017-12-10T14:12:41.033Z,2.63
2017-12-10T14:15:08.545Z,3.43
2017-12-10T14:17:36.081Z,3.10
2017-12-10T14:20:03.581Z,7.10
2017-12-10T14:22:31.877Z,2.07
2017-12-10T14:24:59.400Z,2.47
2017-12-10T14:27:27.684Z,2.67
2017-12-10T14:29:55.952Z,3.03
2017-12-10T14:32:24.373Z,2.60
2017-12-10T14:34:51.870Z,2.90
2017-12-10T14:37:19.381Z,2.33
2017-12-10T14:39:46.918Z,2.30
2017-12-10T14:42:15.196Z,3.00
2017-12-10T14:44:43.501Z,6.30
2017-12-10T14:47:10.995Z,2.73
2017-12-10T14:49:40.010Z,2.50
2017-12-10T14:52:08.360Z,2.83
2017-12-10T14:54:35.886Z,2.20
2017-12-10T14:57:03.399Z,2.63
2017-12-10T14:59:31.688Z,3.07
2017-12-10T15:01:59.962Z,2.70
2017-12-10T15:04:27.488Z,2.37
2017-12-10T15:06:55.032Z,2.83
2017-12-10T15:09:22.560Z,2.50
2017-12-10T15:11:50.108Z,2.03
2017-12-10T15:14:17.647Z,3.83
2017-12-10T15:16:45.941Z,3.40
2017-12-10T15:19:13.445Z,4.20
2017-12-10T15:21:41.003Z,3.23
2017-12-10T15:24:08.541Z,2.77
2017-12-10T15:26:36.053Z,6.43
2017-12-10T15:29:04.344Z,2.77
2017-12-10T15:31:32.702Z,3.80
2017-12-10T15:34:00.968Z,4.77
2017-12-10T15:36:28.517Z,6.23
2017-12-10T15:38:56.041Z,4.10
2017-12-10T15:41:23.583Z,3.90
2017-12-10T15:43:51.081Z,4.37
2017-12-10T15:46:18.581Z,3.73
2017-12-10T15:48:46.871Z,4.00
2017-12-10T15:51:14.410Z,3.60
2017-12-10T15:53:42.692Z,5.87
2017-12-10T15:56:10.204Z,4.33
2017-12-10T15:58:37.786Z,4.97
2017-12-10T16:01:06.070Z,3.90
2017-12-10T16:03:34.340Z,4.83
2017-12-10T16:06:02.652Z,5.20
2017-12-10T16:08:30.204Z,3.67
2017-12-10T16:10:57.704Z,3.87
2017-12-10T16:13:25.236Z,4.73
2017-12-10T16:15:52.766Z,4.77
2017-12-10T16:18:20.340Z,6.17
2017-12-10T16:20:48.489Z,5.87
2017-12-10T16:23:16.000Z,8.03
2017-12-10T16:25:43.548Z,4.80
2017-12-10T16:28:11.045Z,5.07
2017-12-10T16:30:39.339Z,4.20
2017-12-10T16:33:06.845Z,5.10
2017-12-10T16:35:34.371Z,6.37
2017-12-10T16:38:01.926Z,11.83
2017-12-10T16:40:29.457Z,11.87
2017-12-10T16:42:57.786Z,5.07
2017-12-10T16:45:25.373Z,6.77
2017-12-10T16:47:52.895Z,6.37
2017-12-10T16:50:20.420Z,5.77
2017-12-10T16:52:48.684Z,5.83
2017-12-10T16:55:16.974Z,4.77
2017-12-10T16:57:44.494Z,4.50
2017-12-10T17:00:12.034Z,4.90
2017-12-10T17:02:39.584Z,4.60
2017-12-10T17:05:07.096Z,4.73
2017-12-10T17:07:35.388Z,5.50
2017-12-10T17:10:02.893Z,4.00
2017-12-10T17:12:30.425Z,3.10
2017-12-10T17:14:57.933Z,3.47
2017-12-10T17:17:26.250Z,3.40
2017-12-10T17:19:53.755Z,5.23
2017-12-10T17:22:21.306Z,3.70
2017-12-10T17:24:48.857Z,6.80
2017-12-10T17:27:17.161Z,5.23
2017-12-10T17:29:45.516Z,4.97
2017-12-10T17:32:13.809Z,3.80
2017-12-10T17:34:42.115Z,3.23
2017-12-10T17:37:09.647Z,3.20
2017-12-10T17:39:37.916Z,3.87
2017-12-10T17:42:05.469Z,5.07
2017-12-10T17:44:32.985Z,5.50
2017-12-10T17:47:00.519Z,7.40
2017-12-10T17:49:28.025Z,5.20
2017-12-10T17:51:55.561Z,3.77
2017-12-10T17:54:23.084Z,3.83
2017-12-10T17:56:50.633Z,3.90
2017-12-10T17:59:18.953Z,5.17
2017-12-10T18:01:46.449Z,3.87
2017-12-10T18:04:13.992Z,3.70
2017-12-10T18:06:41.500Z,5.17
2017-12-10T18:09:09.023Z,4.83
2017-12-10T18:11:36.608Z,4.77
2017-12-10T18:14:04.092Z,3.50
2017-12-10T18:16:31.669Z,5.03
2017-12-10T18:18:59.186Z,3.60
2017-12-10T18:21:26.697Z,4.80
2017-12-10T18:23:54.253Z,4.70
2017-12-10T18:26:21.753Z,3.43
2017-12-10T18:28:49.282Z,3.23
2017-12-10T18:31:16.803Z,9.70
2017-12-10T18:36:12.975Z,3.03
2017-12-10T18:38:40.506Z,3.57
2017-12-10T18:41:08.004Z,3.00
2017-12-10T18:43:36.307Z,3.30
2017-12-10T18:46:03.839Z,2.27
2017-12-10T18:48:31.387Z,3.17
2017-12-10T18:50:58.915Z,3.07
2017-12-10T18:53:26.967Z,2.93
2017-12-10T18:55:54.477Z,6.33
2017-12-10T18:58:22.019Z,3.93
2017-12-10T19:00:49.532Z,3.27
2017-12-10T19:03:17.101Z,2.20
2017-12-10T19:05:44.601Z,2.47
2017-12-10T19:08:12.154Z,2.20
2017-12-10T19:10:39.700Z,3.57
2017-12-10T19:13:07.199Z,3.13
2017-12-10T19:15:35.532Z,3.07
2017-12-10T19:18:03.043Z,1.77
2017-12-10T19:20:30.593Z,1.93
2017-12-10T19:22:58.866Z,2.00
2017-12-10T19:25:27.187Z,2.03
2017-12-10T19:27:54.700Z,1.77
2017-12-10T19:30:22.998Z,2.50
2017-12-10T19:32:50.556Z,3.33
2017-12-10T19:35:18.066Z,4.70
2017-12-10T19:37:45.684Z,2.70
2017-12-10T19:40:13.202Z,2.47
2017-12-10T19:42:41.487Z,1.57
2017-12-10T19:45:09.789Z,2.27
2017-12-10T19:47:37.315Z,1.73
2017-12-10T19:50:05.621Z,1.50
2017-12-10T19:52:33.153Z,1.50
2017-12-10T19:55:01.431Z,1.60
2017-12-10T19:57:29.727Z,2.47
2017-12-10T19:59:57.284Z,3.53
2017-12-10T20:02:24.802Z,3.00
2017-12-10T20:04:54.263Z,3.80
2017-12-10T20:07:21.806Z,3.27
2017-12-10T20:09:49.356Z,2.60
2017-12-10T20:12:16.934Z,3.10
2017-12-10T20:14:45.181Z,2.57
2017-12-10T20:17:12.728Z,2.10
2017-12-10T20:19:41.033Z,3.87
2017-12-10T20:22:08.573Z,2.73
2017-12-10T20:24:36.096Z,2.10
2017-12-10T20:27:03.630Z,1.63
2017-12-10T20:29:31.181Z,1.67
2017-12-10T20:31:58.710Z,1.47
2017-12-10T20:34:26.244Z,2.20
2017-12-10T20:36:53.921Z,3.00
2017-12-10T20:39:22.275Z,1.77
2017-12-10T20:41:49.848Z,2.00
2017-12-10T20:44:18.378Z,2.03
2017-12-10T20:46:45.922Z,2.27
2017-12-10T20:49:13.461Z,1.40
2017-12-10T20:51:41.093Z,2.23
2017-12-10T20:54:08.596Z,3.60
2017-12-10T20:56:36.147Z,3.30
2017-12-10T20:59:03.695Z,2.07
2017-12-10T21:01:31.249Z,1.50
2017-12-10T21:03:59.600Z,3.90
2017-12-10T21:06:27.134Z,3.50
2017-12-10T21:08:54.684Z,3.30
2017-12-10T21:11:22.208Z,1.10
2017-12-10T21:13:49.796Z,1.63
2017-12-10T21:16:17.305Z,1.40
2017-12-10T21:18:44.800Z,2.50
2017-12-10T21:21:12.355Z,3.03
2017-12-10T21:23:39.871Z,6.23
2017-12-10T21:26:08.186Z,2.67
2017-12-10T21:28:35.723Z,1.43
2017-12-10T21:31:03.257Z,1.10
2017-12-10T21:33:30.800Z,1.10
2017-12-10T21:35:58.315Z,2.20
2017-12-10T21:38:25.831Z,1.87
2017-12-10T21:40:53.333Z,1.20
2017-12-10T21:43:20.832Z,1.77
2017-12-10T21:45:48.446Z,2.50
2017-12-10T21:48:16.703Z,1.10
2017-12-10T21:50:44.242Z,0.90
2017-12-10T21:53:11.759Z,1.00
2017-12-10T21:55:39.289Z,1.10
2017-12-10T21:58:06.838Z,1.17
2017-12-10T22:00:34.364Z,1.10
2017-12-10T22:03:01.906Z,1.13
2017-12-10T22:05:29.446Z,0.90
2017-12-10T22:07:56.994Z,1.00
2017-12-10T22:10:24.504Z,1.10
2017-12-10T22:12:52.057Z,1.10
2017-12-10T22:15:19.592Z,1.00
2017-12-10T22:17:47.096Z,1.10
2017-12-10T22:20:15.364Z,1.10
2017-12-10T22:22:43.656Z,1.53
2017-12-10T22:25:11.305Z,1.00
2017-12-10T22:27:39.686Z,1.03
2017-12-10T22:30:07.197Z,1.97
2017-12-10T22:32:34.753Z,1.03
2017-12-10T22:35:02.248Z,1.67
2017-12-10T22:37:30.512Z,1.00
2017-12-10T22:39:58.816Z,1.37
2017-12-10T22:42:26.332Z,0.90
2017-12-10T22:44:53.867Z,1.10
2017-12-10T22:47:21.384Z,3.17
2017-12-10T22:49:48.873Z,1.10
2017-12-10T22:52:16.403Z,1.10
2017-12-10T22:54:43.902Z,0.97
2017-12-10T22:57:11.428Z,1.00
2017-12-10T22:59:38.945Z,1.10
2017-12-10T23:02:06.474Z,1.00
2017-12-10T23:04:33.984Z,1.10
2017-12-10T23:07:02.265Z,1.10
2017-12-10T23:09:29.826Z,1.73
2017-12-10T23:11:57.334Z,1.10
2017-12-10T23:14:25.437Z,0.90
2017-12-10T23:16:53.701Z,1.03
2017-12-10T23:19:21.983Z,0.90
2017-12-10T23:21:50.275Z,1.13
2017-12-10T23:24:17.772Z,3.03
2017-12-10T23:26:45.319Z,1.10
2017-12-10T23:29:12.834Z,1.00
2017-12-10T23:31:41.092Z,1.00
2017-12-10T23:34:08.616Z,1.20
2017-12-10T23:36:36.100Z,1.30
2017-12-10T23:39:03.620Z,1.20
2017-12-10T23:41:31.158Z,2.20
2017-12-10T23:43:58.646Z,1.00
2017-12-10T23:46:26.173Z,1.10
2017-12-10T23:48:53.694Z,1.10
2017-12-10T23:51:21.211Z,1.10
2017-12-10T23:53:48.730Z,1.40
2017-12-10T23:56:16.992Z,0.90
2017-12-10T23:58:45.337Z,0.90
